sensor_id;sensor_type;location;lat;lon;timestamp;pressure;altitude;pressure_sealevel;temperature;humidity
61408;BME280;47274;43.054;25.146;2023-07-22T00:01:13;95242.47;;;24.87;52.74
61408;BME280;47274;43.054;25.146;2023-07-22T00:03:39;95303.31;;;25.23;53.16
61408;BME280;47274;43.054;25.146;2023-07-22T00:06:13;95270.38;;;24.93;53.32
61408;BME280;47274;43.054;25.146;2023-07-22T00:08:39;95323.97;;;25.36;53.66
61408;BME280;47274;43.054;25.146;2023-07-22T00:11:05;95249.28;;;24.88;53.48
61408;BME280;47274;43.054;25.146;2023-07-22T00:13:31;95283.06;;;25.18;53.28
61408;BME280;47274;43.054;25.146;2023-07-22T00:16:00;95214.69;;;24.69;53.59
61408;BME280;47274;43.054;25.146;2023-07-22T00:18:31;95266.06;;;25.04;53.34
61408;BME280;47274;43.054;25.146;2023-07-22T00:21:04;95266.06;;;25.04;53.73
61408;BME280;47274;43.054;25.146;2023-07-22T00:23:29;95324.38;;;25.45;53.69
61408;BME280;47274;43.054;25.146;2023-07-22T00:25:55;95296.50;;;25.22;53.89
61408;BME280;47274;43.054;25.146;2023-07-22T00:28:22;95269.59;;;24.93;53.06
61408;BME280;47274;43.054;25.146;2023-07-22T00:30:53;95389.47;;;24.87;53.80
61408;BME280;47274;43.054;25.146;2023-07-22T00:33:20;95391.53;;;24.40;56.46
61408;BME280;47274;43.054;25.146;2023-07-22T00:35:49;95442.56;;;24.20;57.95
61408;BME280;47274;43.054;25.146;2023-07-22T00:38:20;95475.13;;;24.36;57.32
61408;BME280;47274;43.054;25.146;2023-07-22T00:40:47;95422.34;;;24.32;57.34
61408;BME280;47274;43.054;25.146;2023-07-22T00:43:15;95389.66;;;23.95;57.07
61408;BME280;47274;43.054;25.146;2023-07-22T00:45:45;95391.38;;;24.01;56.62
61408;BME280;47274;43.054;25.146;2023-07-22T00:48:27;95363.88;;;24.03;56.61
61408;BME280;47274;43.054;25.146;2023-07-22T00:50:57;95373.81;;;24.01;56.11
61408;BME280;47274;43.054;25.146;2023-07-22T00:53:26;95428.06;;;24.41;56.42
61408;BME280;47274;43.054;25.146;2023-07-22T00:55:55;95413.41;;;24.17;56.55
61408;BME280;47274;43.054;25.146;2023-07-22T00:58:21;95417.78;;;24.11;56.94
61408;BME280;47274;43.054;25.146;2023-07-22T01:00:47;95374.94;;;23.77;56.28
61408;BME280;47274;43.054;25.146;2023-07-22T01:03:16;95418.31;;;24.13;55.80
61408;BME280;47274;43.054;25.146;2023-07-22T01:05:46;95449.47;;;24.38;55.99
61408;BME280;47274;43.054;25.146;2023-07-22T01:08:16;95404.34;;;23.96;55.89
61408;BME280;47274;43.054;25.146;2023-07-22T01:10:43;95433.78;;;23.98;56.40
61408;BME280;47274;43.054;25.146;2023-07-22T01:13:09;95428.00;;;23.84;57.53
61408;BME280;47274;43.054;25.146;2023-07-22T01:15:36;95399.19;;;23.60;57.32
61408;BME280;47274;43.054;25.146;2023-07-22T01:18:03;95464.53;;;24.02;57.33
61408;BME280;47274;43.054;25.146;2023-07-22T01:20:30;95401.69;;;23.55;57.92
61408;BME280;47274;43.054;25.146;2023-07-22T01:23:25;95485.72;;;24.01;59.41
61408;BME280;47274;43.054;25.146;2023-07-22T01:25:51;95490.09;;;23.83;58.52
61408;BME280;47274;43.054;25.146;2023-07-22T01:28:20;95536.22;;;23.84;60.05
61408;BME280;47274;43.054;25.146;2023-07-22T01:30:49;95482.81;;;23.38;60.09
61408;BME280;47274;43.054;25.146;2023-07-22T01:33:15;95483.59;;;23.39;60.14
61408;BME280;47274;43.054;25.146;2023-07-22T01:35:44;95436.91;;;23.12;59.97
61408;BME280;47274;43.054;25.146;2023-07-22T01:38:10;95469.56;;;23.33;59.74
61408;BME280;47274;43.054;25.146;2023-07-22T01:40:38;95449.53;;;23.15;59.95
61408;BME280;47274;43.054;25.146;2023-07-22T01:43:07;95431.63;;;23.01;60.65
61408;BME280;47274;43.054;25.146;2023-07-22T01:45:33;95486.19;;;23.27;60.69
61408;BME280;47274;43.054;25.146;2023-07-22T01:48:01;95444.03;;;22.93;60.76
61408;BME280;47274;43.054;25.146;2023-07-22T01:50:30;95495.28;;;23.13;61.98
61408;BME280;47274;43.054;25.146;2023-07-22T01:52:59;95481.69;;;22.92;61.51
61408;BME280;47274;43.054;25.146;2023-07-22T01:55:32;95515.63;;;23.11;63.24
61408;BME280;47274;43.054;25.146;2023-07-22T01:57:58;95446.78;;;22.57;62.30
61408;BME280;47274;43.054;25.146;2023-07-22T02:00:24;95477.84;;;22.65;62.85
61408;BME280;47274;43.054;25.146;2023-07-22T02:02:53;95444.34;;;22.43;64.38
61408;BME280;47274;43.054;25.146;2023-07-22T02:05:22;95499.56;;;22.65;63.72
61408;BME280;47274;43.054;25.146;2023-07-22T02:07:48;95475.84;;;22.48;65.33
61408;BME280;47274;43.054;25.146;2023-07-22T02:10:14;95549.94;;;22.91;65.01
61408;BME280;47274;43.054;25.146;2023-07-22T02:12:40;95455.63;;;22.26;64.01
61408;BME280;47274;43.054;25.146;2023-07-22T02:15:09;95505.75;;;22.71;64.12
61408;BME280;47274;43.054;25.146;2023-07-22T02:17:51;95442.22;;;22.22;65.77
61408;BME280;47274;43.054;25.146;2023-07-22T02:20:25;95459.84;;;22.27;64.73
61408;BME280;47274;43.054;25.146;2023-07-22T02:22:56;95457.75;;;22.17;65.39
61408;BME280;47274;43.054;25.146;2023-07-22T02:25:38;95462.81;;;22.12;64.66
61408;BME280;47274;43.054;25.146;2023-07-22T02:28:04;95524.91;;;22.53;65.09
61408;BME280;47274;43.054;25.146;2023-07-22T02:30:30;95519.75;;;22.46;65.20
61408;BME280;47274;43.054;25.146;2023-07-22T02:32:55;95476.78;;;22.06;66.03
61408;BME280;47274;43.054;25.146;2023-07-22T02:35:21;95444.25;;;21.83;66.26
61408;BME280;47274;43.054;25.146;2023-07-22T02:37:53;95484.91;;;21.97;67.60
61408;BME280;47274;43.054;25.146;2023-07-22T02:40:19;95471.25;;;21.77;66.78
61408;BME280;47274;43.054;25.146;2023-07-22T02:42:45;95503.19;;;21.97;66.40
61408;BME280;47274;43.054;25.146;2023-07-22T02:45:11;95476.91;;;21.74;67.26
61408;BME280;47274;43.054;25.146;2023-07-22T02:47:38;95503.63;;;21.76;67.51
61408;BME280;47274;43.054;25.146;2023-07-22T02:50:06;95521.66;;;21.77;68.94
61408;BME280;47274;43.054;25.146;2023-07-22T02:52:32;95554.94;;;21.89;68.89
61408;BME280;47274;43.054;25.146;2023-07-22T02:55:15;95507.31;;;21.68;69.83
61408;BME280;47274;43.054;25.146;2023-07-22T02:57:45;95546.88;;;21.90;67.95
61408;BME280;47274;43.054;25.146;2023-07-22T03:00:18;95500.78;;;21.77;68.47
61408;BME280;47274;43.054;25.146;2023-07-22T03:02:55;95520.69;;;21.97;67.85
61408;BME280;47274;43.054;25.146;2023-07-22T03:05:27;95502.53;;;21.84;67.71
61408;BME280;47274;43.054;25.146;2023-07-22T03:07:54;95487.72;;;21.77;68.54
61408;BME280;47274;43.054;25.146;2023-07-22T03:10:19;95516.53;;;21.89;68.35
61408;BME280;47274;43.054;25.146;2023-07-22T03:12:45;95462.09;;;21.49;69.53
61408;BME280;47274;43.054;25.146;2023-07-22T03:15:11;95450.38;;;21.34;71.26
61408;BME280;47274;43.054;25.146;2023-07-22T03:17:39;95455.28;;;21.23;71.67
61408;BME280;47274;43.054;25.146;2023-07-22T03:20:08;95495.78;;;21.58;70.22
61408;BME280;47274;43.054;25.146;2023-07-22T03:22:43;95510.50;;;21.70;70.50
61408;BME280;47274;43.054;25.146;2023-07-22T03:25:10;95492.03;;;21.47;70.46
61408;BME280;47274;43.054;25.146;2023-07-22T03:27:36;95474.41;;;21.42;71.23
61408;BME280;47274;43.054;25.146;2023-07-22T03:30:03;95448.97;;;21.38;70.32
61408;BME280;47274;43.054;25.146;2023-07-22T03:32:29;95464.75;;;21.43;70.19
61408;BME280;47274;43.054;25.146;2023-07-22T03:34:55;95456.38;;;21.41;71.80
61408;BME280;47274;43.054;25.146;2023-07-22T03:37:23;95478.59;;;21.43;72.50
61408;BME280;47274;43.054;25.146;2023-07-22T03:39:52;95493.59;;;21.55;72.63
61408;BME280;47274;43.054;25.146;2023-07-22T03:42:18;95469.34;;;21.47;72.09
61408;BME280;47274;43.054;25.146;2023-07-22T03:44:44;95452.66;;;21.48;72.15
61408;BME280;47274;43.054;25.146;2023-07-22T03:47:09;95476.78;;;21.69;71.33
61408;BME280;47274;43.054;25.146;2023-07-22T03:49:35;95466.47;;;21.74;71.46
61408;BME280;47274;43.054;25.146;2023-07-22T03:52:01;95500.22;;;21.94;71.14
61408;BME280;47274;43.054;25.146;2023-07-22T03:54:27;95490.13;;;21.79;72.30
61408;BME280;47274;43.054;25.146;2023-07-22T03:56:52;95487.22;;;21.87;71.08
61408;BME280;47274;43.054;25.146;2023-07-22T03:59:18;95485.19;;;21.89;72.08
61408;BME280;47274;43.054;25.146;2023-07-22T04:01:44;95486.72;;;21.79;71.83
61408;BME280;47274;43.054;25.146;2023-07-22T04:04:11;95489.53;;;21.77;72.54
61408;BME280;47274;43.054;25.146;2023-07-22T04:06:39;95484.19;;;21.72;72.97
61408;BME280;47274;43.054;25.146;2023-07-22T04:09:05;95465.72;;;21.67;74.09
61408;BME280;47274;43.054;25.146;2023-07-22T04:11:30;95493.41;;;21.93;72.02
61408;BME280;47274;43.054;25.146;2023-07-22T04:13:56;95493.75;;;21.78;74.05
61408;BME280;47274;43.054;25.146;2023-07-22T04:16:23;95502.03;;;21.93;73.06
61408;BME280;47274;43.054;25.146;2023-07-22T04:18:49;95477.00;;;21.86;72.54
61408;BME280;47274;43.054;25.146;2023-07-22T04:21:15;95492.03;;;22.09;72.56
61408;BME280;47274;43.054;25.146;2023-07-22T04:23:40;95474.31;;;21.92;71.58
61408;BME280;47274;43.054;25.146;2023-07-22T04:26:06;95499.88;;;22.09;72.65
61408;BME280;47274;43.054;25.146;2023-07-22T04:28:35;95500.66;;;22.09;72.74
61408;BME280;47274;43.054;25.146;2023-07-22T04:31:00;95503.63;;;22.13;72.84
61408;BME280;47274;43.054;25.146;2023-07-22T04:33:27;95530.94;;;22.35;73.36
61408;BME280;47274;43.054;25.146;2023-07-22T04:35:55;95503.78;;;21.99;73.54
61408;BME280;47274;43.054;25.146;2023-07-22T04:38:21;95504.50;;;22.07;73.40
61408;BME280;47274;43.054;25.146;2023-07-22T04:40:47;95497.00;;;22.10;72.91
61408;BME280;47274;43.054;25.146;2023-07-22T04:43:13;95481.06;;;21.82;73.12
61408;BME280;47274;43.054;25.146;2023-07-22T04:45:38;95540.53;;;22.23;73.42
61408;BME280;47274;43.054;25.146;2023-07-22T04:48:07;95536.09;;;22.23;73.71
61408;BME280;47274;43.054;25.146;2023-07-22T04:50:33;95501.44;;;22.10;72.82
61408;BME280;47274;43.054;25.146;2023-07-22T04:52:59;95530.44;;;22.27;72.94
61408;BME280;47274;43.054;25.146;2023-07-22T04:55:24;95536.44;;;22.45;72.80
61408;BME280;47274;43.054;25.146;2023-07-22T04:57:51;95532.34;;;22.68;71.68
61408;BME280;47274;43.054;25.146;2023-07-22T05:00:17;95517.56;;;22.43;71.33
61408;BME280;47274;43.054;25.146;2023-07-22T05:02:45;95513.53;;;22.59;71.46
61408;BME280;47274;43.054;25.146;2023-07-22T05:05:13;95517.53;;;22.62;72.06
61408;BME280;47274;43.054;25.146;2023-07-22T05:07:39;95536.66;;;22.92;71.44
61408;BME280;47274;43.054;25.146;2023-07-22T05:10:06;95552.88;;;23.13;71.87
61408;BME280;47274;43.054;25.146;2023-07-22T05:12:32;95524.41;;;22.75;72.41
61408;BME280;47274;43.054;25.146;2023-07-22T05:14:58;95541.34;;;23.02;71.33
61408;BME280;47274;43.054;25.146;2023-07-22T05:17:24;95554.47;;;22.84;72.78
61408;BME280;47274;43.054;25.146;2023-07-22T05:19:51;95527.56;;;22.77;73.10
61408;BME280;47274;43.054;25.146;2023-07-22T05:22:16;95563.34;;;23.13;71.89
61408;BME280;47274;43.054;25.146;2023-07-22T05:24:42;95533.41;;;22.79;71.70
61408;BME280;47274;43.054;25.146;2023-07-22T05:27:08;95523.94;;;22.96;70.43
61408;BME280;47274;43.054;25.146;2023-07-22T05:29:34;95531.59;;;23.09;70.20
61408;BME280;47274;43.054;25.146;2023-07-22T05:31:59;95555.38;;;23.08;70.35
61408;BME280;47274;43.054;25.146;2023-07-22T05:34:25;95549.88;;;22.98;72.63
61408;BME280;47274;43.054;25.146;2023-07-22T05:36:51;95547.81;;;23.00;72.97
61408;BME280;47274;43.054;25.146;2023-07-22T05:39:17;95587.47;;;22.85;73.10
61408;BME280;47274;43.054;25.146;2023-07-22T05:41:45;95559.81;;;22.89;71.77
61408;BME280;47274;43.054;25.146;2023-07-22T05:44:11;95582.88;;;23.40;71.99
61408;BME280;47274;43.054;25.146;2023-07-22T05:46:37;95589.66;;;23.72;69.77
61408;BME280;47274;43.054;25.146;2023-07-22T05:49:04;95601.34;;;23.57;71.23
61408;BME280;47274;43.054;25.146;2023-07-22T05:51:29;95607.00;;;23.73;68.51
61408;BME280;47274;43.054;25.146;2023-07-22T05:53:55;95593.53;;;23.69;70.16
61408;BME280;47274;43.054;25.146;2023-07-22T05:56:21;95612.34;;;23.89;69.01
61408;BME280;47274;43.054;25.146;2023-07-22T05:58:46;95617.22;;;23.86;68.71
61408;BME280;47274;43.054;25.146;2023-07-22T06:01:12;95614.16;;;24.12;67.00
61408;BME280;47274;43.054;25.146;2023-07-22T06:03:40;95590.59;;;23.77;67.51
61408;BME280;47274;43.054;25.146;2023-07-22T06:06:06;95594.41;;;24.33;67.30
61408;BME280;47274;43.054;25.146;2023-07-22T06:08:32;95603.13;;;24.74;66.47
61408;BME280;47274;43.054;25.146;2023-07-22T06:11:01;95627.47;;;24.58;66.95
61408;BME280;47274;43.054;25.146;2023-07-22T06:13:26;95593.34;;;24.70;66.51
61408;BME280;47274;43.054;25.146;2023-07-22T06:15:52;95605.72;;;24.86;66.28
61408;BME280;47274;43.054;25.146;2023-07-22T06:18:18;95623.31;;;25.43;64.25
61408;BME280;47274;43.054;25.146;2023-07-22T06:20:44;95610.06;;;25.21;65.81
61408;BME280;47274;43.054;25.146;2023-07-22T06:23:11;95621.50;;;25.15;64.56
61408;BME280;47274;43.054;25.146;2023-07-22T06:25:39;95628.75;;;24.96;65.45
61408;BME280;47274;43.054;25.146;2023-07-22T06:28:04;95625.81;;;25.09;65.63
61408;BME280;47274;43.054;25.146;2023-07-22T06:30:30;95626.50;;;25.45;64.03
61408;BME280;47274;43.054;25.146;2023-07-22T06:32:56;95627.78;;;25.59;63.53
61408;BME280;47274;43.054;25.146;2023-07-22T06:35:21;95632.56;;;25.62;63.87
61408;BME280;47274;43.054;25.146;2023-07-22T06:37:47;95625.84;;;25.38;66.70
61408;BME280;47274;43.054;25.146;2023-07-22T06:40:13;95641.38;;;25.39;65.52
61408;BME280;47274;43.054;25.146;2023-07-22T06:42:39;95651.66;;;25.41;65.60
61408;BME280;47274;43.054;25.146;2023-07-22T06:45:05;95648.81;;;25.59;65.96
61408;BME280;47274;43.054;25.146;2023-07-22T06:47:31;95643.25;;;25.72;64.16
61408;BME280;47274;43.054;25.146;2023-07-22T06:49:57;95651.56;;;25.36;66.37
61408;BME280;47274;43.054;25.146;2023-07-22T06:52:23;95632.09;;;25.65;65.78
61408;BME280;47274;43.054;25.146;2023-07-22T06:54:49;95644.97;;;25.67;65.73
61408;BME280;47274;43.054;25.146;2023-07-22T06:57:15;95661.41;;;25.74;65.77
61408;BME280;47274;43.054;25.146;2023-07-22T06:59:44;95662.34;;;26.52;63.02
61408;BME280;47274;43.054;25.146;2023-07-22T07:02:09;95656.53;;;26.50;62.31
61408;BME280;47274;43.054;25.146;2023-07-22T07:04:35;95646.81;;;26.51;62.94
61408;BME280;47274;43.054;25.146;2023-07-22T07:07:01;95659.25;;;26.38;63.20
61408;BME280;47274;43.054;25.146;2023-07-22T07:09:37;95670.94;;;26.64;63.22
61408;BME280;47274;43.054;25.146;2023-07-22T07:12:03;95665.81;;;26.75;60.48
61408;BME280;47274;43.054;25.146;2023-07-22T07:14:29;95660.72;;;26.68;62.60
61408;BME280;47274;43.054;25.146;2023-07-22T07:16:54;95673.72;;;27.19;59.53
61408;BME280;47274;43.054;25.146;2023-07-22T07:19:20;95664.06;;;27.56;59.15
61408;BME280;47274;43.054;25.146;2023-07-22T07:21:46;95669.09;;;28.22;57.65
61408;BME280;47274;43.054;25.146;2023-07-22T07:24:11;95671.34;;;28.41;57.33
61408;BME280;47274;43.054;25.146;2023-07-22T07:26:37;95662.13;;;28.06;56.37
61408;BME280;47274;43.054;25.146;2023-07-22T07:29:03;95651.28;;;28.02;56.18
61408;BME280;47274;43.054;25.146;2023-07-22T07:31:28;95646.34;;;28.53;55.35
61408;BME280;47274;43.054;25.146;2023-07-22T07:33:54;95662.78;;;28.66;54.92
61408;BME280;47274;43.054;25.146;2023-07-22T07:36:20;95643.44;;;28.50;54.89
61408;BME280;47274;43.054;25.146;2023-07-22T07:38:46;95631.09;;;28.71;54.10
61408;BME280;47274;43.054;25.146;2023-07-22T07:41:15;95643.00;;;28.73;52.89
61408;BME280;47274;43.054;25.146;2023-07-22T07:43:41;95628.28;;;28.93;53.28
61408;BME280;47274;43.054;25.146;2023-07-22T07:46:21;95644.28;;;29.34;53.36
61408;BME280;47274;43.054;25.146;2023-07-22T07:48:54;95653.88;;;29.65;51.23
61408;BME280;47274;43.054;25.146;2023-07-22T07:51:20;95643.78;;;30.08;51.41
61408;BME280;47274;43.054;25.146;2023-07-22T07:53:47;95642.22;;;30.23;45.94
61408;BME280;47274;43.054;25.146;2023-07-22T07:56:14;95637.72;;;29.62;48.40
61408;BME280;47274;43.054;25.146;2023-07-22T07:58:40;95622.09;;;30.27;49.33
61408;BME280;47274;43.054;25.146;2023-07-22T08:01:06;95635.91;;;30.99;47.48
61408;BME280;47274;43.054;25.146;2023-07-22T08:03:33;95614.63;;;30.39;46.07
61408;BME280;47274;43.054;25.146;2023-07-22T08:05:59;95623.44;;;30.09;47.05
61408;BME280;47274;43.054;25.146;2023-07-22T08:08:25;95596.69;;;29.49;47.24
61408;BME280;47274;43.054;25.146;2023-07-22T08:11:01;95612.06;;;29.93;47.86
61408;BME280;47274;43.054;25.146;2023-07-22T08:13:28;95564.19;;;29.69;45.32
61408;BME280;47274;43.054;25.146;2023-07-22T08:16:17;95591.50;;;30.60;45.84
61408;BME280;47274;43.054;25.146;2023-07-22T08:18:42;95569.75;;;30.78;42.83
61408;BME280;47274;43.054;25.146;2023-07-22T08:21:09;95523.91;;;30.08;41.54
61408;BME280;47274;43.054;25.146;2023-07-22T08:23:36;95522.94;;;29.63;41.58
61408;BME280;47274;43.054;25.146;2023-07-22T08:26:03;95516.47;;;30.15;42.36
61408;BME280;47274;43.054;25.146;2023-07-22T08:28:32;95525.19;;;30.26;39.54
61408;BME280;47274;43.054;25.146;2023-07-22T08:31:01;95520.28;;;29.63;41.19
61408;BME280;47274;43.054;25.146;2023-07-22T08:33:26;95527.66;;;29.86;40.88
61408;BME280;47274;43.054;25.146;2023-07-22T08:35:52;95558.22;;;30.43;40.06
61408;BME280;47274;43.054;25.146;2023-07-22T08:38:18;95554.31;;;30.15;40.35
61408;BME280;47274;43.054;25.146;2023-07-22T08:40:44;95610.03;;;30.65;40.71
61408;BME280;47274;43.054;25.146;2023-07-22T08:43:14;95591.16;;;31.31;40.70
61408;BME280;47274;43.054;25.146;2023-07-22T08:45:40;95590.31;;;31.75;39.11
61408;BME280;47274;43.054;25.146;2023-07-22T08:48:09;95594.53;;;32.11;39.38
61408;BME280;47274;43.054;25.146;2023-07-22T08:53:30;95550.25;;;31.77;37.75
61408;BME280;47274;43.054;25.146;2023-07-22T08:55:58;95511.72;;;31.79;37.46
61408;BME280;47274;43.054;25.146;2023-07-22T08:58:25;95503.88;;;31.40;37.86
61408;BME280;47274;43.054;25.146;2023-07-22T09:00:52;95513.06;;;31.53;36.98
61408;BME280;47274;43.054;25.146;2023-07-22T09:03:19;95547.09;;;31.41;37.92
61408;BME280;47274;43.054;25.146;2023-07-22T09:05:46;95540.91;;;31.11;37.13
61408;BME280;47274;43.054;25.146;2023-07-22T09:08:13;95513.84;;;31.14;36.22
61408;BME280;47274;43.054;25.146;2023-07-22T09:10:39;95511.09;;;31.63;37.75
61408;BME280;47274;43.054;25.146;2023-07-22T09:13:05;95560.13;;;32.24;37.04
61408;BME280;47274;43.054;25.146;2023-07-22T09:15:35;95544.00;;;31.92;37.29
61408;BME280;47274;43.054;25.146;2023-07-22T09:18:02;95546.03;;;32.00;37.19
61408;BME280;47274;43.054;25.146;2023-07-22T09:20:29;95565.25;;;32.64;36.38
61408;BME280;47274;43.054;25.146;2023-07-22T09:22:56;95521.41;;;33.04;36.41
61408;BME280;47274;43.054;25.146;2023-07-22T09:25:24;95492.88;;;32.91;37.79
61408;BME280;47274;43.054;25.146;2023-07-22T09:27:59;95522.03;;;33.66;36.97
61408;BME280;47274;43.054;25.146;2023-07-22T09:30:27;95558.47;;;33.33;35.92
61408;BME280;47274;43.054;25.146;2023-07-22T09:33:00;95467.88;;;32.11;38.41
61408;BME280;47274;43.054;25.146;2023-07-22T09:38:08;95536.38;;;33.33;36.34
61408;BME280;47274;43.054;25.146;2023-07-22T09:40:33;95537.09;;;33.38;37.92
61408;BME280;47274;43.054;25.146;2023-07-22T09:43:01;95497.59;;;33.64;37.05
61408;BME280;47274;43.054;25.146;2023-07-22T09:45:29;95487.25;;;33.77;36.49
61408;BME280;47274;43.054;25.146;2023-07-22T09:47:56;95546.56;;;33.12;38.14
61408;BME280;47274;43.054;25.146;2023-07-22T09:50:24;95517.53;;;33.94;36.32
61408;BME280;47274;43.054;25.146;2023-07-22T09:52:55;95521.41;;;34.57;35.03
61408;BME280;47274;43.054;25.146;2023-07-22T09:55:37;95469.00;;;34.39;35.43
61408;BME280;47274;43.054;25.146;2023-07-22T09:58:03;95544.94;;;34.92;34.56
61408;BME280;47274;43.054;25.146;2023-07-22T10:00:34;95455.88;;;34.79;35.12
61408;BME280;47274;43.054;25.146;2023-07-22T10:03:03;95485.41;;;34.82;34.31
61408;BME280;47274;43.054;25.146;2023-07-22T10:05:35;95501.06;;;34.98;34.31
61408;BME280;47274;43.054;25.146;2023-07-22T10:08:06;95467.91;;;34.54;33.23
61408;BME280;47274;43.054;25.146;2023-07-22T10:10:39;95460.84;;;34.72;35.42
61408;BME280;47274;43.054;25.146;2023-07-22T10:13:10;95516.06;;;35.52;34.51
61408;BME280;47274;43.054;25.146;2023-07-22T10:15:36;95465.72;;;35.59;34.01
61408;BME280;47274;43.054;25.146;2023-07-22T10:18:04;95500.41;;;35.91;34.17
61408;BME280;47274;43.054;25.146;2023-07-22T10:20:34;95470.88;;;35.96;33.25
61408;BME280;47274;43.054;25.146;2023-07-22T10:23:03;95499.13;;;36.28;33.30
61408;BME280;47274;43.054;25.146;2023-07-22T10:25:30;95501.03;;;36.36;33.40
61408;BME280;47274;43.054;25.146;2023-07-22T10:27:56;95516.44;;;36.48;33.32
61408;BME280;47274;43.054;25.146;2023-07-22T10:30:31;95532.09;;;36.23;31.54
61408;BME280;47274;43.054;25.146;2023-07-22T10:32:57;95537.78;;;36.30;33.71
61408;BME280;47274;43.054;25.146;2023-07-22T10:35:41;95516.28;;;36.44;31.91
61408;BME280;47274;43.054;25.146;2023-07-22T10:38:13;95518.31;;;36.39;31.59
61408;BME280;47274;43.054;25.146;2023-07-22T10:43:15;95518.41;;;36.16;32.94
61408;BME280;47274;43.054;25.146;2023-07-22T10:45:45;95551.72;;;36.50;32.67
61408;BME280;47274;43.054;25.146;2023-07-22T10:48:14;95516.72;;;36.29;32.82
61408;BME280;47274;43.054;25.146;2023-07-22T10:50:46;95558.69;;;36.86;30.86
61408;BME280;47274;43.054;25.146;2023-07-22T11:04:25;95533.50;;;36.78;32.09
61408;BME280;47274;43.054;25.146;2023-07-22T11:07:05;95547.72;;;37.05;32.89
61408;BME280;47274;43.054;25.146;2023-07-22T11:15:09;95499.38;;;36.00;32.81
61408;BME280;47274;43.054;25.146;2023-07-22T11:17:41;95467.72;;;35.94;32.96
61408;BME280;47274;43.054;25.146;2023-07-22T11:20:10;95484.00;;;36.15;32.94
61408;BME280;47274;43.054;25.146;2023-07-22T11:22:39;95547.50;;;36.66;32.25
61408;BME280;47274;43.054;25.146;2023-07-22T11:25:09;95490.25;;;36.01;32.56
61408;BME280;47274;43.054;25.146;2023-07-22T11:27:42;95493.38;;;36.03;33.47
61408;BME280;47274;43.054;25.146;2023-07-22T11:30:10;95505.75;;;36.39;32.02
61408;BME280;47274;43.054;25.146;2023-07-22T11:32:42;95481.81;;;36.34;32.39
61408;BME280;47274;43.054;25.146;2023-07-22T11:35:15;95469.44;;;36.47;31.60
61408;BME280;47274;43.054;25.146;2023-07-22T11:37:44;95538.25;;;36.98;32.45
61408;BME280;47274;43.054;25.146;2023-07-22T11:40:13;95535.25;;;36.65;31.74
61408;BME280;47274;43.054;25.146;2023-07-22T11:42:42;95490.72;;;36.61;31.96
61408;BME280;47274;43.054;25.146;2023-07-22T11:45:11;95493.38;;;36.78;32.02
61408;BME280;47274;43.054;25.146;2023-07-22T11:47:39;95496.69;;;36.84;32.96
61408;BME280;47274;43.054;25.146;2023-07-22T11:50:12;95460.97;;;36.71;31.47
61408;BME280;47274;43.054;25.146;2023-07-22T11:52:38;95464.47;;;36.97;32.01
61408;BME280;47274;43.054;25.146;2023-07-22T11:55:14;95516.22;;;37.19;31.46
61408;BME280;47274;43.054;25.146;2023-07-22T11:57:42;95520.16;;;37.21;31.85
61408;BME280;47274;43.054;25.146;2023-07-22T12:00:08;95485.22;;;36.83;31.29
61408;BME280;47274;43.054;25.146;2023-07-22T12:02:35;95517.00;;;36.93;30.48
61408;BME280;47274;43.054;25.146;2023-07-22T12:07:56;95452.66;;;35.98;33.01
61408;BME280;47274;43.054;25.146;2023-07-22T12:10:34;95484.94;;;36.19;32.66
61408;BME280;47274;43.054;25.146;2023-07-22T12:13:10;95491.75;;;36.42;32.34
61408;BME280;47274;43.054;25.146;2023-07-22T12:15:36;95496.88;;;35.73;31.83
61408;BME280;47274;43.054;25.146;2023-07-22T12:18:06;95502.25;;;35.05;33.44
61408;BME280;47274;43.054;25.146;2023-07-22T12:20:34;95440.84;;;34.83;34.20
61408;BME280;47274;43.054;25.146;2023-07-22T12:23:01;95508.44;;;35.68;33.51
61408;BME280;47274;43.054;25.146;2023-07-22T12:25:27;95522.03;;;35.80;31.73
61408;BME280;47274;43.054;25.146;2023-07-22T12:27:53;95490.75;;;35.50;32.85
61408;BME280;47274;43.054;25.146;2023-07-22T12:30:19;95501.56;;;35.22;31.96
61408;BME280;47274;43.054;25.146;2023-07-22T12:32:45;95491.19;;;35.43;32.73
61408;BME280;47274;43.054;25.146;2023-07-22T12:35:11;95494.09;;;35.87;32.60
61408;BME280;47274;43.054;25.146;2023-07-22T12:37:44;95512.72;;;36.00;32.80
61408;BME280;47274;43.054;25.146;2023-07-22T12:40:20;95514.81;;;36.21;32.31
61408;BME280;47274;43.054;25.146;2023-07-22T12:42:46;95485.09;;;35.74;31.69
61408;BME280;47274;43.054;25.146;2023-07-22T12:45:13;95482.22;;;34.80;32.98
61408;BME280;47274;43.054;25.146;2023-07-22T12:47:39;95436.38;;;34.70;33.86
61408;BME280;47274;43.054;25.146;2023-07-22T12:50:07;95466.72;;;35.19;33.74
61408;BME280;47274;43.054;25.146;2023-07-22T12:52:34;95509.19;;;36.00;32.76
61408;BME280;47274;43.054;25.146;2023-07-22T12:55:07;95419.66;;;35.54;32.29
61408;BME280;47274;43.054;25.146;2023-07-22T12:58:01;95507.13;;;35.88;34.77
61408;BME280;47274;43.054;25.146;2023-07-22T13:00:30;95413.72;;;35.26;33.84
61408;BME280;47274;43.054;25.146;2023-07-22T13:02:59;95446.41;;;35.63;34.60
61408;BME280;47274;43.054;25.146;2023-07-22T13:05:28;95444.53;;;35.72;33.40
61408;BME280;47274;43.054;25.146;2023-07-22T13:07:54;95462.84;;;35.87;33.25
61408;BME280;47274;43.054;25.146;2023-07-22T13:10:36;95499.47;;;35.95;33.89
61408;BME280;47274;43.054;25.146;2023-07-22T13:13:05;95408.56;;;35.60;33.04
61408;BME280;47274;43.054;25.146;2023-07-22T13:15:37;95431.88;;;35.86;33.69
61408;BME280;47274;43.054;25.146;2023-07-22T13:18:04;95410.34;;;35.82;33.60
61408;BME280;47274;43.054;25.146;2023-07-22T13:20:58;95442.25;;;35.96;33.05
61408;BME280;47274;43.054;25.146;2023-07-22T13:23:24;95444.31;;;35.91;33.67